PWSweather.com
Personal Weather Stations
Station Observations
PWSLORIS
The Farm At Fox Bay, Loris, SC 29569

The Farm At Fox BayLoris, SC 29569

Lat: 34.067097, Lon: -78.86907

Elevation: 108

Station Type: Davis Vantage Pro2 with 24 hr. FARS and solar

http://www.lorisweather.com

Latest ConditionsUpdated 9:45:01 PM EDT Sunday, Aug 28, 2016
Currently Today's Max Today's Min Today's Average
Temperature 76.9°F24.9°C 89.1°F31.7°C 74.1°F23.4°C 80.7°F27.1°C
Dew Point 73.4°F23.0°C 77.7°F25.4°C 73.3°F22.9°C 75.0°F23.9°C
Winds Calm Calm 6.9 mph NE11.1 kmh NE - 1.7 mph 2.7 kmh
Wind Gusts -- 13.0 mph20.9 kmh - -
Humidity 89% 98% 62% 84%
Pressure 30.09 in1019.0 mb 30.14 in1020.7 mb 30.05 in1017.6 mb -
Hour Temp Dew Point Humidity Winds Wind Gusts Pressure Precip Precip Rate Daily Precip Total
09:45 PM 76.9°F24.9°C 73.4°F23.0°C 89% Calm Calm -- 30.09 in1019.0 mb - 0.00 in0.0 mm 0.00 in0.0 mm
09:30 PM 77.4°F25.2°C 73.9°F23.3°C 89% Calm Calm -- 30.08 in1018.6 mb - 0.00 in0.0 mm 0.00 in0.0 mm
09:15 PM 77.9°F25.5°C 74.1°F23.4°C 88% 0.8 mph N1.3 kmh N 1.0 mph1.6 kmh 30.08 in1018.6 mb - 0.00 in0.0 mm 0.00 in0.0 mm
09:00 PM 78.3°F25.7°C 74.1°F23.4°C 87% 1.2 mph NNE1.9 kmh NNE 3.0 mph4.8 kmh 30.08 in1018.6 mb - 0.00 in0.0 mm 0.00 in0.0 mm
08:45 PM 78.7°F25.9°C 74.2°F23.4°C 86% Calm Calm -- 30.07 in1018.3 mb - 0.00 in0.0 mm 0.00 in0.0 mm
08:30 PM 79.2°F26.2°C 73.9°F23.3°C 84% 0.5 mph NE0.8 kmh NE 4.0 mph6.4 kmh 30.07 in1018.3 mb - 0.00 in0.0 mm 0.00 in0.0 mm
08:15 PM 80.0°F26.7°C 74.4°F23.6°C 83% Calm Calm -- 30.06 in1017.9 mb - 0.00 in0.0 mm 0.00 in0.0 mm
08:00 PM 80.5°F26.9°C 74.5°F23.6°C 82% Calm Calm -- 30.06 in1017.9 mb - 0.00 in0.0 mm 0.00 in0.0 mm
07:45 PM 81.1°F27.3°C 75.1°F23.9°C 82% Calm Calm -- 30.05 in1017.6 mb - 0.00 in0.0 mm 0.00 in0.0 mm
07:30 PM 81.7°F27.6°C 74.9°F23.8°C 80% 1.2 mph E1.9 kmh E 1.0 mph1.6 kmh 30.05 in1017.6 mb - 0.00 in0.0 mm 0.00 in0.0 mm
07:15 PM 82.5°F28.1°C 75.0°F23.9°C 78% 4.5 mph E7.2 kmh E 8.0 mph12.9 kmh 30.05 in1017.6 mb - 0.00 in0.0 mm 0.00 in0.0 mm
07:00 PM 83.6°F28.7°C 74.4°F23.6°C 74% 4.4 mph ENE7.1 kmh ENE 9.0 mph14.5 kmh 30.05 in1017.6 mb - 0.00 in0.0 mm 0.00 in0.0 mm
06:45 PM 84.2°F29.0°C 74.6°F23.7°C 73% 3.6 mph E5.8 kmh E 10.0 mph16.1 kmh 30.05 in1017.6 mb - 0.00 in0.0 mm 0.00 in0.0 mm
06:30 PM 85.2°F29.6°C 75.1°F23.9°C 72% 2.3 mph E3.7 kmh E 7.0 mph11.3 kmh 30.05 in1017.6 mb - 0.00 in0.0 mm 0.00 in0.0 mm
06:15 PM 84.9°F29.4°C 75.7°F24.3°C 74% Calm Calm -- 30.05 in1017.6 mb - 0.00 in0.0 mm 0.00 in0.0 mm
06:00 PM 84.6°F29.2°C 75.0°F23.9°C 73% 4.0 mph ENE6.4 kmh ENE 8.0 mph12.9 kmh 30.06 in1017.9 mb - 0.00 in0.0 mm 0.00 in0.0 mm
05:45 PM 84.7°F29.3°C 75.1°F23.9°C 73% 1.9 mph NE3.1 kmh NE 5.0 mph8.0 kmh 30.06 in1017.9 mb - 0.00 in0.0 mm 0.00 in0.0 mm
05:30 PM 84.1°F28.9°C 74.5°F23.6°C 73% 3.0 mph NE4.8 kmh NE 7.0 mph11.3 kmh 30.07 in1018.3 mb - 0.00 in0.0 mm 0.00 in0.0 mm
05:15 PM 84.5°F29.2°C 74.5°F23.6°C 72% 4.6 mph NE7.4 kmh NE 5.0 mph8.0 kmh 30.07 in1018.3 mb - 0.00 in0.0 mm 0.00 in0.0 mm
05:00 PM 85.2°F29.6°C 75.1°F23.9°C 72% 5.6 mph NE9.0 kmh NE 7.0 mph11.3 kmh 30.07 in1018.3 mb - 0.00 in0.0 mm 0.00 in0.0 mm
04:45 PM 85.4°F29.7°C 75.4°F24.1°C 72% 1.4 mph NNE2.3 kmh NNE 5.0 mph8.0 kmh 30.07 in1018.3 mb - 0.00 in0.0 mm 0.00 in0.0 mm
04:30 PM 87.1°F30.6°C 75.7°F24.3°C 69% 5.3 mph NE8.5 kmh NE 7.0 mph11.3 kmh 30.06 in1017.9 mb - 0.00 in0.0 mm 0.00 in0.0 mm
04:15 PM 86.8°F30.4°C 75.4°F24.1°C 69% 0.9 mph NE1.4 kmh NE 5.0 mph8.0 kmh 30.06 in1017.9 mb - 0.00 in0.0 mm 0.00 in0.0 mm
04:00 PM 86.6°F30.3°C 75.3°F24.1°C 69% 3.5 mph ENE5.6 kmh ENE 11.0 mph17.7 kmh 30.07 in1018.3 mb - 0.00 in0.0 mm 0.00 in0.0 mm
03:45 PM 86.9°F30.5°C 76.4°F24.7°C 71% 1.7 mph ENE2.7 kmh ENE 5.0 mph8.0 kmh 30.08 in1018.6 mb - 0.00 in0.0 mm 0.00 in0.0 mm
03:30 PM 85.1°F29.5°C 75.4°F24.1°C 73% 2.0 mph NE3.2 kmh NE 7.0 mph11.3 kmh 30.09 in1019.0 mb - 0.00 in0.0 mm 0.00 in0.0 mm
03:15 PM 85.5°F29.7°C 75.9°F24.4°C 73% 0.9 mph NE1.4 kmh NE 6.0 mph9.7 kmh 30.09 in1019.0 mb - 0.00 in0.0 mm 0.00 in0.0 mm
03:00 PM 86.1°F30.1°C 75.6°F24.2°C 71% 3.4 mph NE5.5 kmh NE 8.0 mph12.9 kmh 30.09 in1019.0 mb - 0.00 in0.0 mm 0.00 in0.0 mm
02:45 PM 85.5°F29.7°C 75.8°F24.3°C 73% 4.2 mph NE6.8 kmh NE 8.0 mph12.9 kmh 30.10 in1019.3 mb - 0.00 in0.0 mm 0.00 in0.0 mm
02:30 PM 85.2°F29.6°C 74.7°F23.7°C 71% 5.7 mph NE9.2 kmh NE 8.0 mph12.9 kmh 30.11 in1019.6 mb - 0.00 in0.0 mm 0.00 in0.0 mm
02:15 PM 85.2°F29.6°C 74.3°F23.5°C 70% 1.6 mph E2.6 kmh E 6.0 mph9.7 kmh 30.11 in1019.6 mb - 0.00 in0.0 mm 0.00 in0.0 mm
02:00 PM 85.9°F29.9°C 74.5°F23.6°C 69% 3.1 mph NE5.0 kmh NE 5.0 mph8.0 kmh 30.11 in1019.6 mb - 0.00 in0.0 mm 0.00 in0.0 mm
01:45 PM 86.8°F30.4°C 74.5°F23.6°C 67% 2.6 mph ENE4.2 kmh ENE 8.0 mph12.9 kmh 30.11 in1019.6 mb - 0.00 in0.0 mm 0.00 in0.0 mm
01:30 PM 87.9°F31.1°C 75.6°F24.2°C 67% 5.4 mph N8.7 kmh N 7.0 mph11.3 kmh 30.10 in1019.3 mb - 0.00 in0.0 mm 0.00 in0.0 mm
01:15 PM 88.9°F31.6°C 75.2°F24.0°C 64% 5.2 mph N8.4 kmh N 10.0 mph16.1 kmh 30.11 in1019.6 mb - 0.00 in0.0 mm 0.00 in0.0 mm
01:00 PM 89.1°F31.7°C 74.3°F23.5°C 62% 5.6 mph E9.0 kmh E 9.0 mph14.5 kmh 30.11 in1019.6 mb - 0.00 in0.0 mm 0.00 in0.0 mm
12:45 PM 87.2°F30.7°C 74.5°F23.6°C 66% 6.9 mph NE11.1 kmh NE 11.0 mph17.7 kmh 30.12 in1020.0 mb - 0.00 in0.0 mm 0.00 in0.0 mm
12:30 PM 87.2°F30.7°C 74.5°F23.6°C 66% 4.8 mph E7.7 kmh E 3.0 mph4.8 kmh 30.12 in1020.0 mb - 0.00 in0.0 mm 0.00 in0.0 mm
12:15 PM 87.2°F30.7°C 75.8°F24.3°C 69% 6.0 mph NE9.7 kmh NE 13.0 mph20.9 kmh 30.12 in1020.0 mb - 0.00 in0.0 mm 0.00 in0.0 mm
12:00 PM 87.3°F30.7°C 75.9°F24.4°C 69% 5.9 mph N9.5 kmh N 9.0 mph14.5 kmh 30.12 in1020.0 mb - 0.00 in0.0 mm 0.00 in0.0 mm
11:45 AM 86.1°F30.1°C 75.6°F24.2°C 71% 5.9 mph NNE9.5 kmh NNE 9.0 mph14.5 kmh 30.13 in1020.3 mb - 0.00 in0.0 mm 0.00 in0.0 mm
11:30 AM 85.8°F29.9°C 76.1°F24.5°C 73% 4.6 mph E7.4 kmh E 7.0 mph11.3 kmh 30.13 in1020.3 mb - 0.00 in0.0 mm 0.00 in0.0 mm
11:15 AM 85.2°F29.6°C 76.0°F24.4°C 74% 5.2 mph NE8.4 kmh NE 8.0 mph12.9 kmh 30.14 in1020.7 mb - 0.00 in0.0 mm 0.00 in0.0 mm
11:00 AM 84.5°F29.2°C 76.9°F24.9°C 78% 2.4 mph ENE3.9 kmh ENE 7.0 mph11.3 kmh 30.14 in1020.7 mb - 0.00 in0.0 mm 0.00 in0.0 mm
10:45 AM 83.7°F28.7°C 76.9°F24.9°C 80% 3.1 mph NE5.0 kmh NE 7.0 mph11.3 kmh 30.14 in1020.7 mb - 0.00 in0.0 mm 0.00 in0.0 mm
10:30 AM 83.4°F28.6°C 77.3°F25.2°C 82% 0.2 mph NE0.3 kmh NE 6.0 mph9.7 kmh 30.13 in1020.3 mb - 0.00 in0.0 mm 0.00 in0.0 mm
10:15 AM 82.8°F28.2°C 76.0°F24.4°C 80% 4.2 mph NE6.8 kmh NE 5.0 mph8.0 kmh 30.13 in1020.3 mb - 0.00 in0.0 mm 0.00 in0.0 mm
10:00 AM 82.6°F28.1°C 77.7°F25.4°C 85% 0.9 mph E1.4 kmh E 5.0 mph8.0 kmh 30.13 in1020.3 mb - 0.00 in0.0 mm 0.00 in0.0 mm
09:45 AM 83.0°F28.3°C 77.7°F25.4°C 84% 4.1 mph N6.6 kmh N 7.0 mph11.3 kmh 30.13 in1020.3 mb - 0.00 in0.0 mm 0.00 in0.0 mm
09:30 AM 82.2°F27.9°C 76.9°F24.9°C 84% 0.4 mph E0.6 kmh E 1.0 mph1.6 kmh 30.12 in1020.0 mb - 0.00 in0.0 mm 0.00 in0.0 mm
09:15 AM 81.2°F27.3°C 76.6°F24.8°C 86% 0.6 mph E1.0 kmh E 1.0 mph1.6 kmh 30.11 in1019.6 mb - 0.00 in0.0 mm 0.00 in0.0 mm
09:00 AM 80.6°F27.0°C 76.8°F24.9°C 88% Calm Calm -- 30.12 in1020.0 mb - 0.00 in0.0 mm 0.00 in0.0 mm
08:45 AM 79.9°F26.6°C 76.7°F24.8°C 90% 0.7 mph ENE1.1 kmh ENE 5.0 mph8.0 kmh 30.12 in1020.0 mb - 0.00 in0.0 mm 0.00 in0.0 mm
08:30 AM 79.1°F26.2°C 76.6°F24.8°C 92% 2.0 mph NE3.2 kmh NE 3.0 mph4.8 kmh 30.11 in1019.6 mb - 0.00 in0.0 mm 0.00 in0.0 mm
08:15 AM 78.1°F25.6°C 76.6°F24.8°C 95% 2.3 mph E3.7 kmh E 5.0 mph8.0 kmh 30.11 in1019.6 mb - 0.00 in0.0 mm 0.00 in0.0 mm
08:00 AM 77.0°F25.0°C 76.1°F24.5°C 97% 0.7 mph NE1.1 kmh NE 3.0 mph4.8 kmh 30.11 in1019.6 mb - 0.00 in0.0 mm 0.00 in0.0 mm
07:45 AM 75.9°F24.4°C 75.3°F24.1°C 98% Calm Calm 1.0 mph1.6 kmh 30.10 in1019.3 mb - 0.00 in0.0 mm 0.00 in0.0 mm
07:30 AM 75.0°F23.9°C 74.4°F23.6°C 98% Calm Calm -- 30.10 in1019.3 mb - 0.00 in0.0 mm 0.00 in0.0 mm
07:15 AM 74.7°F23.7°C 74.1°F23.4°C 98% Calm Calm 3.0 mph4.8 kmh 30.09 in1019.0 mb - 0.00 in0.0 mm 0.00 in0.0 mm
07:00 AM 74.6°F23.7°C 74.0°F23.3°C 98% Calm Calm -- 30.09 in1019.0 mb - 0.00 in0.0 mm 0.00 in0.0 mm
06:45 AM 74.5°F23.6°C 73.9°F23.3°C 98% Calm Calm -- 30.09 in1019.0 mb - 0.00 in0.0 mm 0.00 in0.0 mm
06:30 AM 74.3°F23.5°C 73.7°F23.2°C 98% Calm Calm -- 30.09 in1019.0 mb - 0.00 in0.0 mm 0.00 in0.0 mm
06:15 AM 74.1°F23.4°C 73.5°F23.1°C 98% Calm Calm -- 30.08 in1018.6 mb - 0.00 in0.0 mm 0.00 in0.0 mm
06:00 AM 74.2°F23.4°C 73.3°F22.9°C 97% Calm Calm -- 30.08 in1018.6 mb - 0.00 in0.0 mm 0.00 in0.0 mm
05:45 AM 74.2°F23.4°C 73.3°F22.9°C 97% Calm Calm -- 30.08 in1018.6 mb - 0.00 in0.0 mm 0.00 in0.0 mm
05:30 AM 74.3°F23.5°C 73.4°F23.0°C 97% Calm Calm -- 30.08 in1018.6 mb - 0.00 in0.0 mm 0.00 in0.0 mm
05:15 AM 74.3°F23.5°C 73.4°F23.0°C 97% Calm Calm -- 30.08 in1018.6 mb - 0.00 in0.0 mm 0.00 in0.0 mm
05:00 AM 74.6°F23.7°C 73.7°F23.2°C 97% Calm Calm -- 30.09 in1019.0 mb - 0.00 in0.0 mm 0.00 in0.0 mm
04:45 AM 74.9°F23.8°C 74.0°F23.3°C 97% Calm Calm -- 30.09 in1019.0 mb - 0.00 in0.0 mm 0.00 in0.0 mm
04:30 AM 74.7°F23.7°C 73.5°F23.1°C 96% Calm Calm -- 30.08 in1018.6 mb - 0.00 in0.0 mm 0.00 in0.0 mm
04:15 AM 75.0°F23.9°C 74.1°F23.4°C 97% Calm Calm -- 30.08 in1018.6 mb - 0.00 in0.0 mm 0.00 in0.0 mm
04:00 AM 74.9°F23.8°C 73.7°F23.2°C 96% Calm Calm -- 30.08 in1018.6 mb - 0.00 in0.0 mm 0.00 in0.0 mm
03:45 AM 75.5°F24.2°C 74.3°F23.5°C 96% Calm Calm -- 30.08 in1018.6 mb - 0.00 in0.0 mm 0.00 in0.0 mm
03:30 AM 75.8°F24.3°C 74.6°F23.7°C 96% Calm Calm -- 30.09 in1019.0 mb - 0.00 in0.0 mm 0.00 in0.0 mm
03:15 AM 76.0°F24.4°C 74.8°F23.8°C 96% Calm Calm -- 30.09 in1019.0 mb - 0.00 in0.0 mm 0.00 in0.0 mm
03:00 AM 75.8°F24.3°C 74.6°F23.7°C 96% Calm Calm -- 30.09 in1019.0 mb - 0.00 in0.0 mm 0.00 in0.0 mm
02:45 AM 76.0°F24.4°C 74.8°F23.8°C 96% Calm Calm -- 30.09 in1019.0 mb - 0.00 in0.0 mm 0.00 in0.0 mm
02:30 AM 75.9°F24.4°C 74.7°F23.7°C 96% Calm Calm -- 30.10 in1019.3 mb - 0.00 in0.0 mm 0.00 in0.0 mm
02:15 AM 75.7°F24.3°C 74.5°F23.6°C 96% Calm Calm -- 30.10 in1019.3 mb - 0.00 in0.0 mm 0.00 in0.0 mm
02:00 AM 75.6°F24.2°C 74.4°F23.6°C 96% Calm Calm -- 30.10 in1019.3 mb - 0.00 in0.0 mm 0.00 in0.0 mm
01:45 AM 75.9°F24.4°C 74.4°F23.6°C 95% Calm Calm -- 30.10 in1019.3 mb - 0.00 in0.0 mm 0.00 in0.0 mm
01:30 AM 76.3°F24.6°C 74.8°F23.8°C 95% Calm Calm -- 30.11 in1019.6 mb - 0.00 in0.0 mm 0.00 in0.0 mm
01:15 AM 76.8°F24.9°C 74.9°F23.8°C 94% Calm Calm -- 30.11 in1019.6 mb - 0.00 in0.0 mm 0.00 in0.0 mm
01:00 AM 77.0°F25.0°C 75.1°F23.9°C 94% Calm Calm -- 30.11 in1019.6 mb - 0.00 in0.0 mm 0.00 in0.0 mm
12:45 AM 76.9°F24.9°C 75.0°F23.9°C 94% Calm Calm -- 30.11 in1019.6 mb - 0.00 in0.0 mm 0.00 in0.0 mm
12:30 AM 76.9°F24.9°C 75.0°F23.9°C 94% Calm Calm -- 30.11 in1019.6 mb - 0.00 in0.0 mm 0.00 in0.0 mm
12:15 AM 76.7°F24.8°C 74.8°F23.8°C 94% Calm Calm -- 30.11 in1019.6 mb - 0.00 in0.0 mm 0.00 in0.0 mm
12:00 AM 76.9°F24.9°C 75.0°F23.9°C 94% Calm Calm -- 30.12 in1020.0 mb - 0.00 in0.0 mm 0.00 in0.0 mm